createdAt,value
2018-12-17T00:00:51.213Z,34.57
2018-12-17T00:01:57.308Z,35.10
2018-12-17T00:03:03.360Z,35.30
2018-12-17T00:04:09.442Z,34.95
2018-12-17T00:05:15.498Z,34.90
2018-12-17T00:06:21.566Z,33.73
2018-12-17T00:07:25.608Z,32.75
2018-12-17T00:08:32.098Z,34.98
2018-12-17T00:09:35.739Z,33.25
2018-12-17T00:10:39.809Z,35.10
2018-12-17T00:11:43.989Z,33.70
2018-12-17T00:12:48.053Z,32.13
2018-12-17T00:13:52.066Z,34.60
2018-12-17T00:14:56.388Z,32.98
2018-12-17T00:16:00.713Z,34.43
2018-12-17T00:17:05.264Z,32.60
2018-12-17T00:18:10.522Z,32.45
2018-12-17T00:19:14.574Z,32.63
2018-12-17T00:20:19.212Z,33.53
2018-12-17T00:21:24.385Z,33.20
2018-12-17T00:22:28.440Z,33.23
2018-12-17T00:23:32.501Z,30.43
2018-12-17T00:24:36.523Z,30.83
2018-12-17T00:25:40.559Z,30.23
2018-12-17T00:26:44.586Z,30.95
2018-12-17T00:27:48.630Z,28.65
2018-12-17T00:28:52.695Z,30.68
2018-12-17T00:29:56.769Z,31.67
2018-12-17T00:31:00.821Z,31.77
2018-12-17T00:32:04.853Z,30.20
2018-12-17T00:33:08.908Z,30.75
2018-12-17T00:34:12.997Z,30.05
2018-12-17T00:35:17.047Z,31.90
2018-12-17T00:36:21.100Z,32.83
2018-12-17T00:37:25.098Z,32.10
2018-12-17T00:38:29.144Z,29.60
2018-12-17T00:39:33.172Z,31.25
2018-12-17T00:40:37.247Z,32.15
2018-12-17T00:41:41.275Z,30.17
2018-12-17T00:42:45.299Z,31.35
2018-12-17T00:43:49.470Z,32.87
2018-12-17T00:44:53.520Z,31.57
2018-12-17T00:45:57.710Z,30.87
2018-12-17T00:47:02.901Z,31.10
2018-12-17T00:48:07.018Z,30.85
2018-12-17T00:49:11.038Z,30.48
2018-12-17T00:50:15.115Z,30.53
2018-12-17T00:51:19.197Z,32.37
2018-12-17T00:52:23.239Z,30.60
2018-12-17T00:53:27.318Z,30.10
2018-12-17T00:54:31.503Z,31.65
2018-12-17T00:55:35.682Z,31.00
2018-12-17T00:56:39.714Z,31.27
2018-12-17T00:57:43.765Z,31.65
2018-12-17T00:58:47.804Z,30.85
2018-12-17T00:59:51.855Z,32.23
2018-12-17T01:00:55.922Z,31.33
2018-12-17T01:01:59.985Z,30.92
2018-12-17T01:03:04.189Z,30.23
2018-12-17T01:04:08.237Z,30.95
2018-12-17T01:05:12.288Z,31.93
2018-12-17T01:06:16.342Z,30.82
2018-12-17T01:07:24.598Z,30.72
2018-12-17T01:08:28.649Z,28.30
2018-12-17T01:09:32.675Z,30.40
2018-12-17T01:10:36.737Z,28.57
2018-12-17T01:11:40.775Z,29.25
2018-12-17T01:12:44.851Z,30.63
2018-12-17T01:13:49.899Z,29.65
2018-12-17T01:14:54.137Z,31.62
2018-12-17T01:16:05.974Z,29.32
2018-12-17T01:17:10.171Z,28.98
2018-12-17T01:18:14.251Z,29.55
2018-12-17T01:19:18.297Z,29.87
2018-12-17T01:20:22.369Z,29.42
2018-12-17T01:21:26.528Z,29.02
2018-12-17T01:22:30.551Z,28.67
2018-12-17T01:23:34.607Z,29.55
2018-12-17T01:24:38.607Z,30.08
2018-12-17T01:25:42.627Z,30.70
2018-12-17T01:26:47.753Z,28.98
2018-12-17T01:27:52.740Z,28.02
2018-12-17T01:28:56.938Z,28.90
2018-12-17T01:30:01.018Z,29.25
2018-12-17T01:31:05.374Z,30.17
2018-12-17T01:32:09.397Z,29.18
2018-12-17T01:33:13.453Z,29.00
2018-12-17T01:34:17.525Z,27.98
2018-12-17T01:35:21.538Z,28.20
2018-12-17T01:36:25.618Z,28.90
2018-12-17T01:37:29.673Z,27.30
2018-12-17T01:38:33.715Z,28.07
2018-12-17T01:39:37.721Z,27.77
2018-12-17T01:40:41.737Z,28.38
2018-12-17T01:41:45.755Z,28.83
2018-12-17T01:42:49.773Z,29.25
2018-12-17T01:43:53.777Z,27.35
2018-12-17T01:44:57.819Z,27.20
2018-12-17T01:46:01.909Z,27.13
2018-12-17T01:47:05.981Z,27.90
2018-12-17T01:48:10.051Z,28.13
2018-12-17T01:49:14.099Z,27.05
2018-12-17T01:50:18.201Z,26.50
2018-12-17T01:51:22.289Z,26.97
2018-12-17T01:52:26.357Z,28.35
2018-12-17T01:53:30.403Z,27.55
2018-12-17T01:54:34.473Z,27.65
2018-12-17T01:55:38.515Z,27.30
2018-12-17T01:56:42.544Z,25.57
2018-12-17T01:57:46.569Z,26.20
2018-12-17T01:58:50.704Z,26.02
2018-12-17T01:59:54.756Z,25.97
2018-12-17T02:00:58.800Z,25.40
2018-12-17T02:02:02.857Z,25.70
2018-12-17T02:03:06.943Z,25.57
2018-12-17T02:04:11.024Z,25.97
2018-12-17T02:05:15.091Z,24.72
2018-12-17T02:06:19.221Z,24.67
2018-12-17T02:07:23.523Z,23.80
2018-12-17T02:08:27.546Z,24.02
2018-12-17T02:09:31.495Z,23.12
2018-12-17T02:10:35.552Z,22.22
2018-12-17T02:11:39.573Z,23.95
2018-12-17T02:12:43.575Z,24.32
2018-12-17T02:13:47.710Z,22.87
2018-12-17T02:14:51.754Z,23.77
2018-12-17T02:15:55.831Z,22.22
2018-12-17T02:16:59.843Z,23.93
2018-12-17T02:18:03.943Z,22.17
2018-12-17T02:19:08.018Z,24.87
2018-12-17T02:20:12.042Z,23.38
2018-12-17T02:21:16.067Z,24.25
2018-12-17T02:22:20.114Z,23.85
2018-12-17T02:23:24.168Z,24.80
2018-12-17T02:24:28.212Z,23.47
2018-12-17T02:25:32.253Z,24.75
2018-12-17T02:26:36.305Z,22.42
2018-12-17T02:27:40.336Z,21.70
2018-12-17T02:28:44.371Z,21.87
2018-12-17T02:29:48.434Z,22.70
2018-12-17T02:30:52.533Z,22.50
2018-12-17T02:31:56.566Z,22.95
2018-12-17T02:33:00.630Z,21.05
2018-12-17T02:34:04.777Z,20.97
2018-12-17T02:35:08.898Z,22.25
2018-12-17T02:36:13.015Z,22.25
2018-12-17T02:37:17.108Z,22.40
2018-12-17T02:38:21.157Z,21.30
2018-12-17T02:39:25.197Z,22.80
2018-12-17T02:40:29.313Z,20.35
2018-12-17T02:41:33.341Z,20.68
2018-12-17T02:42:37.364Z,20.77
2018-12-17T02:43:41.418Z,21.20
2018-12-17T02:44:45.484Z,21.05
2018-12-17T02:45:49.525Z,19.43
2018-12-17T02:46:53.568Z,19.40
2018-12-17T02:47:57.599Z,20.97
2018-12-17T02:49:01.663Z,20.32
2018-12-17T02:50:06.603Z,19.90
2018-12-17T02:51:10.686Z,19.90
2018-12-17T02:52:14.738Z,20.40
2018-12-17T02:53:18.798Z,19.77
2018-12-17T02:54:22.853Z,19.27
2018-12-17T02:55:26.898Z,19.77
2018-12-17T02:56:30.959Z,19.87
2018-12-17T02:57:35.037Z,19.25
2018-12-17T02:58:43.954Z,19.83
2018-12-17T02:59:45.113Z,18.60
2018-12-17T03:00:49.143Z,19.80
2018-12-17T03:01:53.299Z,18.10
2018-12-17T03:02:57.340Z,18.85
2018-12-17T03:04:01.417Z,20.17
2018-12-17T03:05:06.236Z,18.10
2018-12-17T03:06:10.656Z,19.23
2018-12-17T03:07:14.744Z,18.05
2018-12-17T03:08:18.775Z,19.20
2018-12-17T03:09:23.055Z,18.03
2018-12-17T03:10:27.097Z,19.30
2018-12-17T03:11:31.132Z,17.17
2018-12-17T03:12:35.161Z,17.55
2018-12-17T03:13:39.224Z,18.20
2018-12-17T03:14:43.263Z,18.40
2018-12-17T03:15:47.358Z,18.27
2018-12-17T03:16:51.407Z,19.10
2018-12-17T03:17:55.455Z,18.20
2018-12-17T03:18:59.476Z,17.23
2018-12-17T03:20:03.900Z,17.20
2018-12-17T03:21:07.948Z,19.37
2018-12-17T03:22:12.019Z,18.10
2018-12-17T03:23:16.074Z,18.93
2018-12-17T03:24:20.113Z,18.23
2018-12-17T03:25:24.134Z,18.03
2018-12-17T03:26:28.181Z,18.27
2018-12-17T03:27:32.213Z,17.32
2018-12-17T03:28:36.299Z,18.87
2018-12-17T03:29:40.462Z,17.67
2018-12-17T03:30:44.517Z,17.52
2018-12-17T03:31:48.659Z,19.30
2018-12-17T03:32:52.684Z,19.60
2018-12-17T03:33:56.771Z,18.77
2018-12-17T03:35:00.810Z,18.42
2018-12-17T03:36:04.970Z,17.00
2018-12-17T03:37:08.975Z,17.95
2018-12-17T03:38:13.027Z,18.10
2018-12-17T03:39:17.186Z,18.70
2018-12-17T03:40:21.223Z,18.77
2018-12-17T03:41:25.247Z,17.73
2018-12-17T03:42:29.250Z,18.45
2018-12-17T03:43:33.272Z,18.20
2018-12-17T03:44:37.389Z,17.60
2018-12-17T03:45:41.411Z,17.87
2018-12-17T03:46:45.428Z,18.05
2018-12-17T03:47:49.496Z,16.87
2018-12-17T03:48:53.503Z,17.50
2018-12-17T03:49:57.583Z,17.73
2018-12-17T03:51:01.618Z,18.73
2018-12-17T03:52:05.659Z,17.07
2018-12-17T03:53:09.771Z,17.20
2018-12-17T03:54:13.895Z,16.70
2018-12-17T03:55:17.962Z,17.85
2018-12-17T03:56:21.972Z,17.87
2018-12-17T03:57:26.021Z,18.13
2018-12-17T03:58:30.051Z,17.30
2018-12-17T03:59:34.120Z,18.25
2018-12-17T04:00:38.174Z,17.30
2018-12-17T04:01:42.278Z,17.37
2018-12-17T04:02:46.369Z,17.15
2018-12-17T04:03:50.407Z,17.30
2018-12-17T04:04:54.671Z,16.90
2018-12-17T04:05:58.765Z,16.17
2018-12-17T04:07:02.951Z,17.23
2018-12-17T04:08:06.972Z,18.00
2018-12-17T04:09:11.023Z,18.10
2018-12-17T04:10:15.141Z,17.00
2018-12-17T04:11:19.165Z,16.23
2018-12-17T04:12:23.283Z,18.82
2018-12-17T04:13:27.323Z,16.87
2018-12-17T04:14:31.363Z,17.62
2018-12-17T04:15:35.590Z,17.30
2018-12-17T04:16:39.658Z,16.85
2018-12-17T04:17:44.906Z,16.67
2018-12-17T04:18:48.964Z,16.90
2018-12-17T04:19:53.025Z,18.42
2018-12-17T04:20:57.083Z,18.20
2018-12-17T04:22:01.107Z,16.50
2018-12-17T04:23:05.139Z,17.80
2018-12-17T04:24:09.196Z,16.27
2018-12-17T04:25:15.231Z,17.50
2018-12-17T04:26:19.271Z,17.82
2018-12-17T04:27:23.269Z,16.52
2018-12-17T04:28:27.314Z,16.45
2018-12-17T04:29:32.411Z,16.27
2018-12-17T04:30:36.544Z,17.83
2018-12-17T04:31:40.681Z,17.60
2018-12-17T04:32:44.760Z,17.35
2018-12-17T04:33:48.873Z,16.42
2018-12-17T04:34:53.143Z,17.52
2018-12-17T04:35:57.178Z,15.65
2018-12-17T04:37:01.236Z,16.62
2018-12-17T04:38:05.281Z,15.73
2018-12-17T04:39:09.338Z,16.13
2018-12-17T04:40:13.429Z,15.88
2018-12-17T04:41:17.460Z,16.27
2018-12-17T04:42:21.490Z,15.85
2018-12-17T04:43:25.526Z,17.95
2018-12-17T04:44:29.574Z,15.88
2018-12-17T04:45:33.616Z,17.05
2018-12-17T04:46:37.688Z,15.40
2018-12-17T04:47:41.695Z,15.88
2018-12-17T04:48:45.765Z,17.85
2018-12-17T04:49:49.784Z,17.02
2018-12-17T04:50:53.828Z,17.67
2018-12-17T04:51:57.917Z,15.72
2018-12-17T04:53:01.952Z,16.32
2018-12-17T04:54:06.031Z,17.50
2018-12-17T04:55:10.099Z,16.48
2018-12-17T04:56:14.283Z,17.60
2018-12-17T04:57:18.450Z,16.45
2018-12-17T04:58:22.474Z,16.55
2018-12-17T04:59:26.479Z,16.80
2018-12-17T05:00:30.537Z,16.52
2018-12-17T05:01:34.574Z,17.10
2018-12-17T05:02:38.651Z,16.57
2018-12-17T05:03:42.715Z,17.37
2018-12-17T05:04:46.766Z,17.50
2018-12-17T05:05:50.790Z,17.37
2018-12-17T05:06:54.815Z,16.75
2018-12-17T05:07:58.900Z,16.10
2018-12-17T05:09:03.030Z,16.17
2018-12-17T05:10:09.106Z,16.95
2018-12-17T05:11:13.339Z,16.25
2018-12-17T05:12:17.356Z,15.65
2018-12-17T05:13:21.523Z,16.42
2018-12-17T05:14:25.575Z,17.07
2018-12-17T05:15:29.762Z,16.67
2018-12-17T05:16:33.904Z,15.75
2018-12-17T05:17:37.930Z,15.95
2018-12-17T05:18:41.969Z,16.17
2018-12-17T05:19:46.008Z,16.55
2018-12-17T05:20:50.103Z,17.00
2018-12-17T05:21:54.121Z,16.37
2018-12-17T05:22:58.185Z,16.27
2018-12-17T05:24:02.252Z,16.45
2018-12-17T05:25:06.742Z,17.03
2018-12-17T05:26:10.794Z,15.93
2018-12-17T05:27:14.933Z,17.12
2018-12-17T05:28:19.011Z,16.30
2018-12-17T05:29:23.080Z,16.67
2018-12-17T05:30:27.101Z,17.45
2018-12-17T05:31:31.150Z,16.35
2018-12-17T05:32:35.253Z,16.57
2018-12-17T05:33:39.414Z,16.70
2018-12-17T05:34:43.438Z,16.77
2018-12-17T05:35:47.439Z,15.90
2018-12-17T05:36:51.457Z,16.23
2018-12-17T05:37:55.547Z,17.15
2018-12-17T05:38:59.586Z,16.17
2018-12-17T05:40:04.242Z,15.95
2018-12-17T05:41:08.302Z,17.02
2018-12-17T05:42:12.368Z,16.77
2018-12-17T05:43:16.481Z,16.55
2018-12-17T05:44:20.555Z,16.30
2018-12-17T05:45:24.569Z,16.30
2018-12-17T05:46:28.601Z,16.27
2018-12-17T05:47:32.702Z,15.78
2018-12-17T05:48:36.733Z,15.98
2018-12-17T05:49:40.803Z,15.68
2018-12-17T05:50:45.073Z,16.40
2018-12-17T05:51:49.089Z,15.30
2018-12-17T05:52:53.141Z,16.27
2018-12-17T05:53:57.227Z,15.75
2018-12-17T05:55:01.276Z,14.87
2018-12-17T05:56:08.131Z,15.00
2018-12-17T05:57:12.166Z,15.93
2018-12-17T05:58:16.229Z,15.15
2018-12-17T05:59:20.288Z,15.08
2018-12-17T06:00:24.839Z,14.18
2018-12-17T06:01:28.875Z,15.05
2018-12-17T06:02:32.952Z,15.98
2018-12-17T06:03:36.989Z,16.07
2018-12-17T06:04:41.014Z,14.85
2018-12-17T06:05:45.057Z,15.28
2018-12-17T06:06:49.088Z,15.50
2018-12-17T06:07:53.125Z,14.45
2018-12-17T06:08:57.143Z,14.55
2018-12-17T06:10:01.174Z,15.23
2018-12-17T06:11:05.418Z,13.15
2018-12-17T06:12:09.553Z,15.30
2018-12-17T06:13:13.544Z,14.50
2018-12-17T06:14:17.558Z,13.65
2018-12-17T06:15:21.577Z,14.65
2018-12-17T06:16:25.717Z,13.95
2018-12-17T06:17:29.838Z,13.97
2018-12-17T06:18:33.999Z,13.85
2018-12-17T06:19:38.061Z,13.28
2018-12-17T06:20:42.091Z,13.90
2018-12-17T06:21:46.303Z,12.85
2018-12-17T06:22:50.364Z,13.78
2018-12-17T06:23:54.500Z,13.95
2018-12-17T06:24:58.577Z,12.70
2018-12-17T06:26:02.603Z,13.70
2018-12-17T06:27:06.665Z,13.15
2018-12-17T06:28:10.737Z,13.50
2018-12-17T06:29:14.832Z,13.45
2018-12-17T06:30:19.017Z,14.05
2018-12-17T06:31:23.080Z,12.82
2018-12-17T06:32:27.151Z,13.03
2018-12-17T06:33:31.264Z,12.75
2018-12-17T06:34:35.333Z,12.20
2018-12-17T06:35:40.663Z,12.65
2018-12-17T06:36:44.721Z,12.65
2018-12-17T06:37:48.813Z,12.68
2018-12-17T06:38:52.834Z,12.75
2018-12-17T06:39:56.920Z,12.30
2018-12-17T06:41:00.971Z,12.88
2018-12-17T06:42:05.345Z,12.43
2018-12-17T06:43:09.401Z,11.45
2018-12-17T06:44:13.474Z,13.18
2018-12-17T06:45:17.503Z,12.33
2018-12-17T06:46:21.587Z,12.25
2018-12-17T06:47:25.640Z,12.25
2018-12-17T06:48:29.825Z,12.15
2018-12-17T06:49:33.886Z,11.90
2018-12-17T06:50:38.001Z,12.53
2018-12-17T06:51:42.236Z,11.80
2018-12-17T06:52:46.279Z,11.90
2018-12-17T06:53:50.354Z,12.03
2018-12-17T06:54:54.861Z,11.08
2018-12-17T06:55:59.460Z,10.90
2018-12-17T06:57:04.303Z,12.10
2018-12-17T06:58:08.585Z,11.35
2018-12-17T06:59:12.668Z,11.93
2018-12-17T07:00:16.753Z,11.57
2018-12-17T07:01:20.831Z,11.57
2018-12-17T07:02:25.006Z,12.58
2018-12-17T07:03:29.068Z,11.73
2018-12-17T07:04:33.121Z,11.95
2018-12-17T07:05:37.208Z,11.22
2018-12-17T07:06:41.236Z,12.45
2018-12-17T07:07:45.400Z,13.18
2018-12-17T07:08:50.736Z,14.03
2018-12-17T07:09:56.075Z,12.03
2018-12-17T07:11:00.112Z,11.08
2018-12-17T07:12:04.135Z,11.60
2018-12-17T07:13:08.166Z,11.80
2018-12-17T07:14:12.214Z,11.30
2018-12-17T07:15:17.584Z,11.40
2018-12-17T07:16:21.615Z,11.12
2018-12-17T07:17:25.692Z,11.10
2018-12-17T07:18:29.739Z,10.98
2018-12-17T07:19:34.896Z,11.30
2018-12-17T07:20:38.969Z,12.00
2018-12-17T07:21:43.057Z,11.48
2018-12-17T07:22:47.234Z,11.12
2018-12-17T07:23:51.261Z,11.50
2018-12-17T07:24:55.365Z,10.93
2018-12-17T07:25:59.368Z,11.78
2018-12-17T07:27:04.684Z,11.48
2018-12-17T07:28:08.823Z,11.08
2018-12-17T07:29:12.937Z,11.05
2018-12-17T07:30:17.335Z,11.45
2018-12-17T07:31:21.345Z,11.80
2018-12-17T07:32:25.428Z,12.33
2018-12-17T07:33:29.445Z,12.25
2018-12-17T07:34:33.730Z,11.63
2018-12-17T07:35:37.749Z,11.90
2018-12-17T07:36:41.860Z,12.60
2018-12-17T07:37:45.897Z,10.93
2018-12-17T07:38:49.888Z,11.95
2018-12-17T07:39:53.955Z,11.50
2018-12-17T07:40:58.119Z,11.45
2018-12-17T07:42:02.132Z,10.95
2018-12-17T07:43:06.145Z,12.00
2018-12-17T07:44:10.172Z,11.35
2018-12-17T07:45:14.167Z,10.70
2018-12-17T07:46:18.337Z,10.00
2018-12-17T07:47:22.362Z,11.00
2018-12-17T07:48:26.409Z,11.13
2018-12-17T07:49:30.397Z,10.57
2018-12-17T07:50:34.397Z,11.12
2018-12-17T07:51:38.447Z,11.30
2018-12-17T07:52:42.469Z,10.63
2018-12-17T07:53:46.511Z,9.90
2018-12-17T07:54:50.528Z,32.80
2018-12-17T07:55:54.560Z,14.20
2018-12-17T07:56:58.883Z,17.50
2018-12-17T07:58:02.963Z,11.43
2018-12-17T07:59:06.968Z,10.70
2018-12-17T08:00:11.930Z,9.50
2018-12-17T08:01:16.049Z,10.82
2018-12-17T08:02:20.099Z,11.03
2018-12-17T08:03:24.126Z,10.63
2018-12-17T08:04:28.232Z,10.50
2018-12-17T08:05:32.296Z,11.28
2018-12-17T08:06:36.643Z,10.63
2018-12-17T08:07:40.619Z,10.43
2018-12-17T08:08:44.648Z,10.33
2018-12-17T08:09:48.654Z,10.18
2018-12-17T08:10:52.679Z,10.33
2018-12-17T08:11:56.848Z,10.73
2018-12-17T08:13:01.185Z,10.47
2018-12-17T08:14:05.217Z,10.45
2018-12-17T08:15:09.352Z,10.65
2018-12-17T08:16:13.484Z,10.67
2018-12-17T08:17:17.533Z,10.35
2018-12-17T08:18:23.355Z,10.25
2018-12-17T08:19:28.986Z,10.60
2018-12-17T08:20:33.239Z,10.60
2018-12-17T08:21:37.741Z,10.83
2018-12-17T08:22:42.510Z,10.55
2018-12-17T08:23:46.608Z,10.73
2018-12-17T08:24:50.967Z,9.47
2018-12-17T08:25:55.230Z,40.70
2018-12-17T08:26:59.290Z,10.80
2018-12-17T08:28:03.474Z,13.10
2018-12-17T08:29:07.516Z,11.07
2018-12-17T08:30:11.599Z,10.68
2018-12-17T08:31:15.799Z,10.37
2018-12-17T08:32:19.855Z,9.98
2018-12-17T08:33:23.921Z,10.88
2018-12-17T08:34:29.135Z,10.32
2018-12-17T08:35:33.122Z,10.47
2018-12-17T08:36:37.182Z,10.55
2018-12-17T08:37:41.274Z,10.33
2018-12-17T08:38:45.366Z,10.03
2018-12-17T08:39:49.401Z,11.07
2018-12-17T08:40:53.586Z,11.13
2018-12-17T08:41:57.624Z,10.77
2018-12-17T08:43:01.657Z,10.53
2018-12-17T08:44:05.756Z,10.45
2018-12-17T08:45:09.850Z,10.45
2018-12-17T08:46:13.925Z,10.30
2018-12-17T08:47:17.932Z,10.63
2018-12-17T08:48:21.948Z,10.37
2018-12-17T08:49:25.996Z,11.10
2018-12-17T08:50:30.044Z,10.03
2018-12-17T08:51:34.245Z,10.23
2018-12-17T08:52:46.753Z,10.50
2018-12-17T08:53:58.716Z,10.07
2018-12-17T08:55:02.832Z,10.33
2018-12-17T08:56:06.940Z,10.60
2018-12-17T08:57:11.009Z,10.60
2018-12-17T08:58:15.334Z,10.17
2018-12-17T08:59:19.522Z,10.40
2018-12-17T09:00:23.621Z,11.05
2018-12-17T09:01:27.961Z,10.32
2018-12-17T09:02:32.129Z,9.23
2018-12-17T09:03:36.341Z,10.63
2018-12-17T09:04:43.648Z,10.00
2018-12-17T09:06:00.672Z,10.23
2018-12-17T09:07:08.483Z,9.40
2018-12-17T09:08:16.664Z,9.30
2018-12-17T09:09:20.850Z,9.37
2018-12-17T09:10:24.917Z,8.80
2018-12-17T09:11:29.061Z,10.00
2018-12-17T09:12:33.179Z,9.97
2018-12-17T09:13:37.365Z,9.23
2018-12-17T09:14:41.485Z,9.60
2018-12-17T09:15:45.578Z,9.65
2018-12-17T09:16:56.745Z,9.30
2018-12-17T09:18:00.843Z,9.90
2018-12-17T09:19:04.937Z,10.27
2018-12-17T09:20:09.468Z,9.43
2018-12-17T09:21:13.709Z,9.70
2018-12-17T09:22:17.837Z,9.77
2018-12-17T09:23:21.946Z,10.13
2018-12-17T09:24:41.788Z,9.77
2018-12-17T09:25:45.905Z,9.90
2018-12-17T09:26:50.015Z,9.95
2018-12-17T09:27:54.118Z,9.60
2018-12-17T09:28:58.250Z,9.63
2018-12-17T09:30:02.624Z,9.40
2018-12-17T09:31:08.776Z,9.63
2018-12-17T09:32:13.053Z,9.80
2018-12-17T09:34:46.186Z,8.93
2018-12-17T09:35:51.486Z,10.00
2018-12-17T09:36:58.835Z,9.98
2018-12-17T09:38:05.276Z,9.95
2018-12-17T09:39:21.991Z,9.30
2018-12-17T09:40:32.337Z,9.58
2018-12-17T09:43:17.135Z,9.38
2018-12-17T09:44:33.317Z,8.33
2018-12-17T09:45:43.307Z,9.10
2018-12-17T09:46:47.385Z,8.37
2018-12-17T09:47:51.476Z,9.15
2018-12-17T09:48:56.660Z,9.20
2018-12-17T09:50:03.515Z,10.10
2018-12-17T09:51:11.326Z,9.23
2018-12-17T09:52:21.517Z,9.00
2018-12-17T09:53:29.863Z,13.37
2018-12-17T09:54:50.275Z,12.17
2018-12-17T09:56:01.355Z,7.97
2018-12-17T09:57:06.902Z,10.68
2018-12-17T09:58:16.989Z,9.53
2018-12-17T09:59:22.216Z,8.77
2018-12-17T10:00:26.374Z,8.83
2018-12-17T10:01:30.515Z,8.70
2018-12-17T10:02:38.035Z,9.37
2018-12-17T10:03:54.240Z,9.00
2018-12-17T10:05:03.412Z,8.47
2018-12-17T10:06:08.020Z,9.05
2018-12-17T10:07:34.392Z,8.47
2018-12-17T10:08:39.033Z,8.68
2018-12-17T10:09:43.074Z,9.53
2018-12-17T10:10:47.198Z,9.00
2018-12-17T10:14:10.705Z,8.93
2018-12-17T10:15:21.779Z,8.40
2018-12-17T10:16:25.863Z,9.13
2018-12-17T10:17:32.794Z,10.43
2018-12-17T10:18:39.753Z,9.60
2018-12-17T10:19:44.713Z,9.45
2018-12-17T10:20:53.954Z,10.30
2018-12-17T10:22:01.573Z,9.67
2018-12-17T10:23:10.050Z,8.53
2018-12-17T10:24:15.539Z,9.00
2018-12-17T10:25:23.966Z,9.37
2018-12-17T10:26:39.755Z,9.27
2018-12-17T10:27:46.145Z,9.13
2018-12-17T10:28:57.658Z,10.87
2018-12-17T10:30:32.206Z,9.40
2018-12-17T10:31:32.734Z,8.73
2018-12-17T10:33:04.957Z,9.00
2018-12-17T10:34:09.845Z,9.00
2018-12-17T10:35:15.378Z,8.83
2018-12-17T10:36:20.123Z,8.90
2018-12-17T10:37:26.148Z,9.20
2018-12-17T10:38:30.399Z,8.93
2018-12-17T10:39:34.529Z,9.30
2018-12-17T10:40:39.406Z,8.13
2018-12-17T10:41:43.587Z,8.58
2018-12-17T10:43:10.078Z,8.65
2018-12-17T10:44:22.718Z,7.90
2018-12-17T10:47:10.115Z,10.68
2018-12-17T10:48:18.333Z,8.73
2018-12-17T10:49:41.081Z,10.67
2018-12-17T10:51:06.452Z,8.67
2018-12-17T10:52:20.593Z,9.03
2018-12-17T10:53:45.507Z,8.58
2018-12-17T10:54:57.042Z,8.20
2018-12-17T10:56:41.861Z,8.40
2018-12-17T10:57:46.062Z,9.07
2018-12-17T10:58:50.876Z,9.27
2018-12-17T11:00:16.107Z,9.30
2018-12-17T11:02:38.316Z,9.68
2018-12-17T11:05:19.587Z,9.30
2018-12-17T11:08:11.008Z,9.38
2018-12-17T11:10:52.433Z,9.90
2018-12-17T11:12:13.864Z,10.50
2018-12-17T11:13:40.155Z,10.77
2018-12-17T11:14:51.486Z,10.25
2018-12-17T11:16:09.631Z,11.67
2018-12-17T11:18:49.541Z,10.72
2018-12-17T11:19:53.984Z,10.75
2018-12-17T11:20:58.243Z,12.17
2018-12-17T11:23:20.348Z,11.03
2018-12-17T11:24:24.516Z,14.53
2018-12-17T11:25:29.580Z,39.45
2018-12-17T11:29:50.357Z,13.32
2018-12-17T11:30:54.562Z,10.90
2018-12-17T11:32:15.570Z,12.30
2018-12-17T11:33:21.005Z,12.43
2018-12-17T11:34:27.250Z,18.05
2018-12-17T11:36:52.659Z,16.87
2018-12-17T11:37:58.515Z,15.23
2018-12-17T11:39:06.875Z,14.00
2018-12-17T11:40:13.027Z,13.60
2018-12-17T11:41:17.367Z,11.55
2018-12-17T11:42:21.440Z,12.23
2018-12-17T11:43:25.547Z,11.83
2018-12-17T11:44:29.586Z,12.03
2018-12-17T11:45:33.735Z,12.80
2018-12-17T11:46:37.789Z,12.63
2018-12-17T11:47:41.943Z,12.60
2018-12-17T11:48:47.273Z,13.05
2018-12-17T11:49:51.345Z,12.37
2018-12-17T11:50:55.423Z,13.77
2018-12-17T11:52:01.194Z,12.87
2018-12-17T11:53:06.506Z,12.40
2018-12-17T11:54:10.709Z,13.03
2018-12-17T11:55:27.595Z,12.80
2018-12-17T12:03:10.259Z,12.00
2018-12-17T12:04:20.466Z,11.83
2018-12-17T12:05:24.536Z,13.13
2018-12-17T12:06:28.615Z,13.93
2018-12-17T12:07:32.764Z,13.30
2018-12-17T12:08:36.841Z,13.97
2018-12-17T12:09:40.873Z,14.90
2018-12-17T12:10:45.019Z,15.77
2018-12-17T12:11:49.131Z,14.87
2018-12-17T12:12:53.193Z,15.43
2018-12-17T12:13:57.331Z,16.13
2018-12-17T12:15:01.479Z,15.57
2018-12-17T12:16:06.919Z,16.80
2018-12-17T12:17:13.356Z,15.13
2018-12-17T12:18:17.448Z,14.90
2018-12-17T12:19:21.630Z,16.57
2018-12-17T12:22:26.319Z,17.97
2018-12-17T12:23:37.502Z,17.63
2018-12-17T12:24:42.093Z,20.00
2018-12-17T12:25:51.877Z,20.97
2018-12-17T12:27:20.773Z,18.87
2018-12-17T12:28:28.808Z,20.60
2018-12-17T12:29:41.333Z,22.10
2018-12-17T12:31:00.330Z,20.83
2018-12-17T12:32:10.687Z,21.10
2018-12-17T12:33:23.837Z,20.30
2018-12-17T12:35:37.852Z,22.03
2018-12-17T12:38:38.731Z,22.67
2018-12-17T12:39:42.938Z,21.63
2018-12-17T12:41:00.364Z,23.30
2018-12-17T12:42:05.619Z,22.27
2018-12-17T12:43:09.752Z,24.87
2018-12-17T12:45:58.242Z,21.60
2018-12-17T12:47:03.414Z,28.07
2018-12-17T12:49:21.302Z,22.17
2018-12-17T12:50:26.081Z,24.20
2018-12-17T12:51:32.798Z,23.60
2018-12-17T12:52:39.818Z,22.93
2018-12-17T12:53:44.088Z,23.10
2018-12-17T12:54:48.519Z,24.17
2018-12-17T12:55:53.598Z,24.43
2018-12-17T12:56:57.835Z,24.30
2018-12-17T12:58:03.763Z,24.77
2018-12-17T12:59:09.627Z,24.03
2018-12-17T13:00:14.845Z,23.87
2018-12-17T13:01:19.070Z,25.20
2018-12-17T13:02:23.460Z,24.70
2018-12-17T13:03:27.772Z,25.33
2018-12-17T13:04:32.225Z,23.27
2018-12-17T13:05:40.672Z,23.53
2018-12-17T13:07:00.848Z,22.97
2018-12-17T13:08:05.252Z,23.23
2018-12-17T13:09:09.347Z,25.40
2018-12-17T13:10:15.692Z,25.27
2018-12-17T13:11:19.797Z,25.47
2018-12-17T13:12:24.173Z,26.07
2018-12-17T13:13:28.265Z,26.90
2018-12-17T13:14:32.968Z,27.13
2018-12-17T13:15:57.043Z,25.30
2018-12-17T13:18:34.292Z,27.03
2018-12-17T13:19:38.510Z,28.60
2018-12-17T13:20:42.562Z,28.47
2018-12-17T13:21:46.764Z,27.40
2018-12-17T13:22:50.907Z,26.97
2018-12-17T13:23:55.070Z,27.23
2018-12-17T13:24:59.151Z,29.67
2018-12-17T13:26:03.393Z,28.60
2018-12-17T13:27:07.629Z,29.37
2018-12-17T13:28:11.688Z,30.23
2018-12-17T13:29:15.747Z,29.73
2018-12-17T13:30:19.836Z,30.07
2018-12-17T13:31:23.933Z,30.87
2018-12-17T13:32:27.992Z,30.77
2018-12-17T13:33:32.046Z,29.13
2018-12-17T13:34:36.077Z,29.37
2018-12-17T13:35:40.166Z,29.10
2018-12-17T13:36:44.249Z,29.10
2018-12-17T13:37:48.371Z,28.47
2018-12-17T13:38:52.467Z,28.83
2018-12-17T13:39:56.540Z,29.53
2018-12-17T13:41:00.578Z,30.30
2018-12-17T13:42:04.683Z,29.80
2018-12-17T13:43:12.240Z,31.00
2018-12-17T13:44:16.413Z,27.87
2018-12-17T13:45:20.639Z,30.57
2018-12-17T13:46:24.774Z,30.27
2018-12-17T13:47:29.517Z,29.97
2018-12-17T13:48:33.624Z,29.67
2018-12-17T13:49:37.667Z,30.30
2018-12-17T13:50:41.812Z,30.73
2018-12-17T13:51:51.061Z,30.70
2018-12-17T13:52:59.366Z,30.83
2018-12-17T13:54:04.932Z,30.13
2018-12-17T13:55:09.316Z,30.63
2018-12-17T13:56:13.563Z,29.97
2018-12-17T13:57:17.578Z,31.03
2018-12-17T13:58:21.820Z,29.73
2018-12-17T13:59:25.870Z,30.47
2018-12-17T14:00:30.001Z,30.27
2018-12-17T14:01:34.109Z,29.83
2018-12-17T14:02:38.342Z,29.17
2018-12-17T14:03:42.510Z,30.03
2018-12-17T14:04:46.585Z,31.40
2018-12-17T14:05:50.691Z,31.67
2018-12-17T14:06:54.821Z,31.07
2018-12-17T14:08:13.201Z,28.70
2018-12-17T14:09:18.622Z,29.70
2018-12-17T14:10:28.648Z,29.57
2018-12-17T14:11:32.819Z,28.67
2018-12-17T14:12:36.888Z,28.73
2018-12-17T14:13:40.911Z,29.60
2018-12-17T14:14:44.911Z,30.03
2018-12-17T14:15:51.184Z,29.97
2018-12-17T14:17:00.538Z,29.57
2018-12-17T14:18:09.844Z,28.10
2018-12-17T14:19:19.868Z,29.90
2018-12-17T14:20:29.130Z,29.80
2018-12-17T14:21:38.590Z,29.33
2018-12-17T14:22:42.797Z,30.30
2018-12-17T14:23:46.817Z,28.57
2018-12-17T14:24:50.887Z,29.13
2018-12-17T14:25:55.051Z,27.90
2018-12-17T14:26:59.101Z,29.03
2018-12-17T14:28:03.137Z,29.50
2018-12-17T14:29:07.185Z,27.90
2018-12-17T14:30:11.513Z,28.60
2018-12-17T14:31:15.658Z,28.87
2018-12-17T14:32:19.750Z,28.27
2018-12-17T14:33:23.882Z,28.57
2018-12-17T14:34:27.996Z,28.50
2018-12-17T14:35:32.205Z,27.63
2018-12-17T14:36:36.326Z,26.67
2018-12-17T14:37:45.781Z,27.20
2018-12-17T14:38:49.827Z,27.23
2018-12-17T14:39:53.902Z,27.93
2018-12-17T14:40:57.999Z,26.83